Time;durP1;ratioP1;P1;durP2;ratioP2;P2;SDS_P1;SDS_P2;PMS_P1;PMS_P2;Temp;Humidity;BMP_temperature;BMP_pressure;BME280_temperature;BME280_humidity;BME280_pressure;Samples;Min_cycle;Max_cycle;Signal;HPM_P1;HPM_P2
2023/01/15 12:37:40;;;;;;;2.00;0.77;;;;;;;4.42;100.00;97899.09;5171579;27;21070;-82
2023/01/15 12:40:21;;;;;;;0.87;0.87;;;;;;;4.87;100.00;97892.28;5153671;27;39228;-83
2023/01/15 12:45:41;;;;;;;0.77;0.60;;;;;;;5.68;100.00;97927.94;5153194;27;42243;-83
2023/01/15 12:48:17;;;;;;;1.03;0.70;;;;;;;5.90;100.00;97923.16;5153342;27;42718;-81
2023/01/15 12:50:48;;;;;;;0.90;0.47;;;;;;;6.05;100.00;97927.53;5171135;27;39157;-83
2023/01/15 12:53:21;;;;;;;0.53;0.53;;;;;;;6.08;100.00;97922.06;5152967;27;40702;-84
2023/01/15 12:55:55;;;;;;;0.67;0.53;;;;;;;6.22;100.00;97941.44;5153020;27;43233;-84
2023/01/15 12:58:39;;;;;;;0.67;0.57;;;;;;;6.35;100.00;97958.16;5153151;27;41425;-83
2023/01/15 13:01:14;;;;;;;1.13;0.60;;;;;;;6.11;100.00;97940.28;5169324;27;39984;-82
2023/01/15 13:03:58;;;;;;;1.23;0.80;;;;;;;6.06;100.00;97928.34;5153208;27;41001;-83
2023/01/15 13:06:27;;;;;;;0.60;0.60;;;;;;;6.26;100.00;97940.31;5152840;27;41882;-83
2023/01/15 13:09:02;;;;;;;0.30;0.30;;;;;;;6.46;100.00;97959.22;5152896;27;41280;-83
2023/01/15 13:11:30;;;;;;;0.50;0.50;;;;;;;6.68;100.00;97964.00;5153462;27;39882;-84
2023/01/15 13:13:59;;;;;;;1.73;0.50;;;;;;;6.75;100.00;97936.41;5152526;27;40536;-86
2023/01/15 13:16:47;;;;;;;0.77;0.50;;;;;;;6.90;100.00;97941.66;5152873;27;42103;-86
2023/01/15 13:19:32;;;;;;;1.87;0.50;;;;;;;6.97;100.00;97938.53;5152939;27;40963;-86
2023/01/15 13:22:05;;;;;;;0.60;0.57;;;;;;;7.01;100.00;97945.31;5152978;27;38601;-85
2023/01/15 13:25:22;;;;;;;0.63;0.50;;;;;;;7.13;100.00;97964.75;5152834;27;41792;-85
2023/01/15 13:28:00;;;;;;;0.60;0.60;;;;;;;7.06;100.00;97945.00;5145135;27;41757;-86
2023/01/15 13:30:46;;;;;;;1.90;0.70;;;;;;;7.00;99.16;97942.78;5153074;27;42172;-84
2023/01/15 13:33:24;;;;;;;1.43;0.73;;;;;;;7.00;98.83;97953.28;5151950;27;38744;-85
2023/01/15 13:35:57;;;;;;;1.30;1.00;;;;;;;6.88;98.29;97933.00;5152386;27;41628;-85
2023/01/15 13:38:28;;;;;;;1.37;1.17;;;;;;;7.10;96.51;97980.72;5152843;27;43003;-84
2023/01/15 13:40:58;;;;;;;2.43;1.00;;;;;;;6.92;96.92;97945.03;5153157;27;40749;-87
2023/01/15 13:43:34;;;;;;;0.67;0.60;;;;;;;6.98;95.54;97961.28;5152499;27;39020;-83
2023/01/15 13:46:05;;;;;;;1.07;0.80;;;;;;;7.28;95.57;97990.13;5167060;27;41709;-86
2023/01/15 13:48:36;;;;;;;2.57;0.90;;;;;;;7.38;94.73;97996.50;5139910;27;42938;-84
2023/01/15 13:51:07;;;;;;;0.40;0.40;;;;;;;7.36;93.67;97987.00;5139183;27;41771;-86
2023/01/15 13:53:38;;;;;;;0.57;0.50;;;;;;;7.40;92.14;98010.41;5138963;27;39673;-83
2023/01/15 13:56:13;;;;;;;1.63;0.63;;;;;;;7.39;91.21;98011.34;5138962;27;40572;-83
2023/01/15 13:58:55;;;;;;;1.20;0.60;;;;;;;7.46;91.80;98012.66;5138761;27;41629;-83
2023/01/15 14:01:26;;;;;;;0.80;0.50;;;;;;;7.36;91.08;98003.66;5139083;27;41155;-85
2023/01/15 14:04:00;;;;;;;0.53;0.53;;;;;;;7.50;91.65;98027.34;5138389;27;40054;-85
2023/01/15 14:06:42;;;;;;;1.47;0.50;;;;;;;7.46;91.05;98025.81;5138579;27;40349;-84
2023/01/15 14:09:12;;;;;;;0.60;0.60;;;;;;;7.25;90.68;98029.81;5138234;27;41702;-85
2023/01/15 14:11:58;;;;;;;0.40;0.40;;;;;;;7.09;90.99;98027.28;5138554;27;41217;-86
2023/01/15 14:14:48;;;;;;;0.83;0.70;;;;;;;6.91;92.86;98022.31;5152705;27;39808;-85
2023/01/15 14:17:45;;;;;;;0.50;0.50;;;;;;;6.91;92.06;98027.56;5138165;27;41619;-84
2023/01/15 14:20:32;;;;;;;0.40;0.40;;;;;;;6.78;92.67;98014.31;5138340;27;42408;-84
2023/01/15 14:23:16;;;;;;;0.70;0.67;;;;;;;6.84;92.21;98025.28;5138328;27;42759;-85
2023/01/15 14:25:58;;;;;;;0.43;0.40;;;;;;;6.80;92.64;97999.25;5138144;27;39917;-83
2023/01/15 14:32:12;;;;;;;0.53;0.53;;;;;;;7.49;91.39;98048.50;5087633;27;42615;-87
2023/01/15 14:34:41;;;;;;;0.67;0.60;;;;;;;7.47;88.99;98043.31;5138604;27;42211;-86
2023/01/15 14:37:25;;;;;;;0.70;0.67;;;;;;;7.47;88.74;98043.31;5137612;27;38948;-88
2023/01/15 14:39:58;;;;;;;1.43;0.50;;;;;;;7.34;88.17;98046.81;5139041;27;40627;-85
2023/01/15 14:45:26;;;;;;;1.17;0.80;;;;;;;7.24;87.75;98051.81;5138087;27;42458;-86
2023/01/15 14:47:56;;;;;;;1.67;0.60;;;;;;;7.14;88.31;98045.44;5138406;27;39098;-84
2023/01/15 14:50:32;;;;;;;0.70;0.50;;;;;;;7.24;87.44;98067.63;5138239;27;40841;-87
2023/01/15 14:53:06;;;;;;;2.10;0.83;;;;;;;7.13;87.24;98070.91;5138074;27;41670;-87
2023/01/15 14:55:39;;;;;;;2.20;0.60;;;;;;;6.88;87.51;98059.31;5137940;27;41134;-86
2023/01/15 14:58:14;;;;;;;0.70;0.50;;;;;;;6.66;88.00;98034.31;5137526;27;40400;-86
2023/01/15 15:00:50;;;;;;;1.40;0.63;;;;;;;6.71;88.89;98048.03;5154224;27;41643;-87
2023/01/15 15:03:22;;;;;;;1.97;0.90;;;;;;;6.55;88.24;98055.16;5137290;27;42787;-86
2023/01/15 15:05:51;;;;;;;0.57;0.53;;;;;;;6.27;88.97;98032.25;5137714;27;41199;-86
2023/01/15 15:08:20;;;;;;;0.77;0.67;;;;;;;6.24;89.24;98042.09;5137412;27;40695;-86
2023/01/15 15:10:54;;;;;;;0.93;0.60;;;;;;;6.12;89.25;98039.22;5137795;27;41158;-86
2023/01/15 15:13:30;;;;;;;0.90;0.60;;;;;;;6.05;89.56;98040.53;5137747;27;42978;-87
2023/01/15 15:16:07;;;;;;;2.13;0.57;;;;;;;5.81;89.65;98018.22;5138205;27;42511;-86
2023/01/15 15:18:42;;;;;;;1.97;0.80;;;;;;;5.84;90.43;98036.44;5137248;27;39784;-90
2023/01/15 15:21:18;;;;;;;0.80;0.70;;;;;;;5.84;90.51;98046.09;5137763;27;41597;-87
2023/01/15 15:23:54;;;;;;;3.67;0.97;;;;;;;5.79;90.66;98067.41;5137099;27;41780;-86
2023/01/15 15:26:25;;;;;;;1.40;1.30;;;;;;;5.60;91.25;98037.81;5137814;27;42360;-86
2023/01/15 15:28:58;;;;;;;3.73;1.00;;;;;;;5.29;91.56;97994.88;5137123;27;39054;-87
2023/01/15 15:31:31;;;;;;;3.33;1.00;;;;;;;5.52;92.33;98047.91;5137804;27;40821;-85
2023/01/15 15:34:00;;;;;;;2.27;0.70;;;;;;;5.60;91.99;98066.72;5137281;27;41590;-84
2023/01/15 15:36:30;;;;;;;1.30;0.63;;;;;;;5.51;92.22;98047.06;5136745;27;41181;-83
2023/01/15 15:39:00;;;;;;;1.40;1.00;;;;;;;5.52;92.08;98061.03;5136972;27;39179;-83
2023/01/15 15:50:19;;;;;;;2.67;0.90;;;;;;;5.38;93.93;98062.63;5137301;27;38817;-85
